sensor_id;sensor_type;location;lat;lon;timestamp;P1;durP1;ratioP1;P2;durP2;ratioP2
13327;SDS011;6733;51.044;3.746;2023-05-19T00:00:21;10.73;;;7.53;;
13327;SDS011;6733;51.044;3.746;2023-05-19T00:02:49;10.87;;;8.40;;
13327;SDS011;6733;51.044;3.746;2023-05-19T00:05:15;12.60;;;8.40;;
13327;SDS011;6733;51.044;3.746;2023-05-19T00:07:43;11.27;;;7.87;;
13327;SDS011;6733;51.044;3.746;2023-05-19T00:10:10;13.57;;;8.80;;
13327;SDS011;6733;51.044;3.746;2023-05-19T00:12:37;12.07;;;8.43;;
13327;SDS011;6733;51.044;3.746;2023-05-19T00:15:03;12.17;;;8.03;;
13327;SDS011;6733;51.044;3.746;2023-05-19T00:17:30;13.30;;;8.43;;
13327;SDS011;6733;51.044;3.746;2023-05-19T00:19:58;12.37;;;8.27;;
13327;SDS011;6733;51.044;3.746;2023-05-19T00:22:25;11.30;;;7.33;;
13327;SDS011;6733;51.044;3.746;2023-05-19T00:24:52;11.47;;;8.33;;
13327;SDS011;6733;51.044;3.746;2023-05-19T00:27:18;12.87;;;7.87;;
13327;SDS011;6733;51.044;3.746;2023-05-19T00:29:44;12.27;;;7.67;;
13327;SDS011;6733;51.044;3.746;2023-05-19T00:32:10;14.57;;;8.50;;
13327;SDS011;6733;51.044;3.746;2023-05-19T00:34:37;15.40;;;8.30;;
13327;SDS011;6733;51.044;3.746;2023-05-19T00:37:03;9.77;;;8.10;;
13327;SDS011;6733;51.044;3.746;2023-05-19T00:39:29;10.70;;;8.43;;
13327;SDS011;6733;51.044;3.746;2023-05-19T00:41:55;11.97;;;9.10;;
13327;SDS011;6733;51.044;3.746;2023-05-19T00:44:21;13.13;;;9.07;;
13327;SDS011;6733;51.044;3.746;2023-05-19T00:46:47;11.57;;;8.23;;
13327;SDS011;6733;51.044;3.746;2023-05-19T00:49:14;12.90;;;8.50;;
13327;SDS011;6733;51.044;3.746;2023-05-19T00:51:40;12.53;;;8.13;;
13327;SDS011;6733;51.044;3.746;2023-05-19T00:54:06;12.07;;;8.30;;
13327;SDS011;6733;51.044;3.746;2023-05-19T00:56:33;11.00;;;9.03;;
13327;SDS011;6733;51.044;3.746;2023-05-19T00:58:59;11.43;;;8.23;;
13327;SDS011;6733;51.044;3.746;2023-05-19T01:01:26;10.97;;;8.73;;
13327;SDS011;6733;51.044;3.746;2023-05-19T01:03:52;12.77;;;8.93;;
13327;SDS011;6733;51.044;3.746;2023-05-19T01:06:23;11.80;;;9.40;;
13327;SDS011;6733;51.044;3.746;2023-05-19T01:08:50;13.53;;;9.23;;
13327;SDS011;6733;51.044;3.746;2023-05-19T01:11:16;15.60;;;9.03;;
13327;SDS011;6733;51.044;3.746;2023-05-19T01:13:42;12.70;;;9.37;;
13327;SDS011;6733;51.044;3.746;2023-05-19T01:21:49;17.20;;;10.83;;
13327;SDS011;6733;51.044;3.746;2023-05-19T01:33:11;15.00;;;10.83;;
13327;SDS011;6733;51.044;3.746;2023-05-19T01:35:40;19.73;;;11.00;;
13327;SDS011;6733;51.044;3.746;2023-05-19T01:38:08;14.10;;;11.70;;
13327;SDS011;6733;51.044;3.746;2023-05-19T01:40:39;13.90;;;11.03;;
13327;SDS011;6733;51.044;3.746;2023-05-19T01:43:07;12.93;;;10.50;;
13327;SDS011;6733;51.044;3.746;2023-05-19T01:45:35;13.63;;;10.63;;
13327;SDS011;6733;51.044;3.746;2023-05-19T01:48:02;15.03;;;11.33;;
13327;SDS011;6733;51.044;3.746;2023-05-19T01:50:29;16.77;;;10.67;;
13327;SDS011;6733;51.044;3.746;2023-05-19T01:52:56;15.93;;;10.70;;
13327;SDS011;6733;51.044;3.746;2023-05-19T01:55:23;13.87;;;10.53;;
13327;SDS011;6733;51.044;3.746;2023-05-19T01:57:59;12.83;;;10.10;;
13327;SDS011;6733;51.044;3.746;2023-05-19T02:09:10;15.40;;;9.80;;
13327;SDS011;6733;51.044;3.746;2023-05-19T02:11:54;17.27;;;10.07;;
13327;SDS011;6733;51.044;3.746;2023-05-19T02:14:29;16.37;;;9.63;;
13327;SDS011;6733;51.044;3.746;2023-05-19T02:17:01;13.97;;;9.37;;
13327;SDS011;6733;51.044;3.746;2023-05-19T02:19:30;13.17;;;9.90;;
13327;SDS011;6733;51.044;3.746;2023-05-19T02:21:58;11.23;;;9.33;;
13327;SDS011;6733;51.044;3.746;2023-05-19T02:24:25;13.83;;;8.80;;
13327;SDS011;6733;51.044;3.746;2023-05-19T02:26:52;12.77;;;9.03;;
13327;SDS011;6733;51.044;3.746;2023-05-19T02:29:18;14.13;;;9.27;;
13327;SDS011;6733;51.044;3.746;2023-05-19T02:31:45;11.93;;;9.13;;
13327;SDS011;6733;51.044;3.746;2023-05-19T02:34:36;11.43;;;9.30;;
13327;SDS011;6733;51.044;3.746;2023-05-19T02:54:21;17.57;;;10.20;;
13327;SDS011;6733;51.044;3.746;2023-05-19T02:56:47;16.17;;;9.10;;
13327;SDS011;6733;51.044;3.746;2023-05-19T02:59:13;12.77;;;9.77;;
13327;SDS011;6733;51.044;3.746;2023-05-19T03:01:40;16.07;;;11.23;;
13327;SDS011;6733;51.044;3.746;2023-05-19T03:04:06;14.80;;;11.43;;
13327;SDS011;6733;51.044;3.746;2023-05-19T03:06:32;15.63;;;11.63;;
13327;SDS011;6733;51.044;3.746;2023-05-19T03:08:58;15.73;;;12.37;;
13327;SDS011;6733;51.044;3.746;2023-05-19T03:11:24;17.30;;;11.97;;
13327;SDS011;6733;51.044;3.746;2023-05-19T03:13:51;17.20;;;11.67;;
13327;SDS011;6733;51.044;3.746;2023-05-19T03:16:17;19.70;;;11.70;;
13327;SDS011;6733;51.044;3.746;2023-05-19T03:18:43;16.00;;;12.57;;
13327;SDS011;6733;51.044;3.746;2023-05-19T03:21:10;21.30;;;12.13;;
13327;SDS011;6733;51.044;3.746;2023-05-19T03:23:36;17.30;;;13.43;;
13327;SDS011;6733;51.044;3.746;2023-05-19T03:26:02;17.23;;;13.67;;
13327;SDS011;6733;51.044;3.746;2023-05-19T03:28:28;20.00;;;13.07;;
13327;SDS011;6733;51.044;3.746;2023-05-19T03:30:55;17.20;;;13.13;;
13327;SDS011;6733;51.044;3.746;2023-05-19T03:33:21;15.70;;;12.63;;
13327;SDS011;6733;51.044;3.746;2023-05-19T03:35:48;18.63;;;13.60;;
13327;SDS011;6733;51.044;3.746;2023-05-19T03:38:14;15.33;;;12.47;;
13327;SDS011;6733;51.044;3.746;2023-05-19T03:40:40;16.73;;;12.50;;
13327;SDS011;6733;51.044;3.746;2023-05-19T03:43:06;19.93;;;12.63;;
13327;SDS011;6733;51.044;3.746;2023-05-19T03:45:33;18.60;;;11.20;;
13327;SDS011;6733;51.044;3.746;2023-05-19T03:47:59;15.97;;;11.33;;
13327;SDS011;6733;51.044;3.746;2023-05-19T03:50:25;16.10;;;11.87;;
13327;SDS011;6733;51.044;3.746;2023-05-19T03:52:53;13.57;;;10.67;;
13327;SDS011;6733;51.044;3.746;2023-05-19T03:55:19;12.37;;;10.20;;
13327;SDS011;6733;51.044;3.746;2023-05-19T03:57:45;14.83;;;10.37;;
13327;SDS011;6733;51.044;3.746;2023-05-19T04:00:12;14.03;;;9.57;;
13327;SDS011;6733;51.044;3.746;2023-05-19T04:02:38;13.60;;;9.93;;
13327;SDS011;6733;51.044;3.746;2023-05-19T04:05:05;13.43;;;9.80;;
13327;SDS011;6733;51.044;3.746;2023-05-19T04:07:32;15.37;;;8.97;;
13327;SDS011;6733;51.044;3.746;2023-05-19T04:09:58;12.47;;;9.10;;
13327;SDS011;6733;51.044;3.746;2023-05-19T04:12:24;10.83;;;8.70;;
13327;SDS011;6733;51.044;3.746;2023-05-19T04:14:51;14.70;;;9.40;;
13327;SDS011;6733;51.044;3.746;2023-05-19T04:17:17;14.20;;;8.93;;
13327;SDS011;6733;51.044;3.746;2023-05-19T04:19:43;12.13;;;7.77;;
13327;SDS011;6733;51.044;3.746;2023-05-19T04:22:09;10.97;;;8.40;;
13327;SDS011;6733;51.044;3.746;2023-05-19T04:24:35;13.70;;;8.57;;
13327;SDS011;6733;51.044;3.746;2023-05-19T04:27:01;11.90;;;9.37;;
13327;SDS011;6733;51.044;3.746;2023-05-19T04:29:29;12.43;;;9.10;;
13327;SDS011;6733;51.044;3.746;2023-05-19T04:31:55;15.57;;;9.00;;
13327;SDS011;6733;51.044;3.746;2023-05-19T04:34:25;12.70;;;8.73;;
13327;SDS011;6733;51.044;3.746;2023-05-19T04:36:53;13.40;;;9.70;;
13327;SDS011;6733;51.044;3.746;2023-05-19T04:39:20;13.53;;;8.77;;
13327;SDS011;6733;51.044;3.746;2023-05-19T04:41:46;13.60;;;9.77;;
13327;SDS011;6733;51.044;3.746;2023-05-19T04:44:12;12.63;;;8.93;;
13327;SDS011;6733;51.044;3.746;2023-05-19T04:46:43;13.80;;;9.90;;
13327;SDS011;6733;51.044;3.746;2023-05-19T04:49:09;12.97;;;9.13;;
13327;SDS011;6733;51.044;3.746;2023-05-19T04:51:39;12.10;;;9.37;;
13327;SDS011;6733;51.044;3.746;2023-05-19T04:54:07;11.83;;;8.80;;
13327;SDS011;6733;51.044;3.746;2023-05-19T04:56:34;14.00;;;9.10;;
13327;SDS011;6733;51.044;3.746;2023-05-19T04:59:01;16.33;;;9.87;;
13327;SDS011;6733;51.044;3.746;2023-05-19T05:01:27;15.47;;;9.13;;
13327;SDS011;6733;51.044;3.746;2023-05-19T05:03:55;12.00;;;9.33;;
13327;SDS011;6733;51.044;3.746;2023-05-19T05:06:23;12.63;;;9.67;;
13327;SDS011;6733;51.044;3.746;2023-05-19T05:08:49;16.73;;;9.90;;
13327;SDS011;6733;51.044;3.746;2023-05-19T05:11:16;11.87;;;9.00;;
13327;SDS011;6733;51.044;3.746;2023-05-19T05:13:43;13.97;;;9.80;;
13327;SDS011;6733;51.044;3.746;2023-05-19T05:16:10;14.67;;;9.40;;
13327;SDS011;6733;51.044;3.746;2023-05-19T05:18:37;13.33;;;9.20;;
13327;SDS011;6733;51.044;3.746;2023-05-19T05:21:03;14.80;;;9.57;;
13327;SDS011;6733;51.044;3.746;2023-05-19T05:23:30;12.60;;;8.27;;
13327;SDS011;6733;51.044;3.746;2023-05-19T05:25:57;12.60;;;8.57;;
13327;SDS011;6733;51.044;3.746;2023-05-19T05:28:23;15.37;;;9.00;;
13327;SDS011;6733;51.044;3.746;2023-05-19T05:30:49;11.97;;;9.20;;
13327;SDS011;6733;51.044;3.746;2023-05-19T05:33:16;10.97;;;8.47;;
13327;SDS011;6733;51.044;3.746;2023-05-19T05:35:42;12.77;;;9.03;;
13327;SDS011;6733;51.044;3.746;2023-05-19T05:38:08;13.37;;;8.53;;
13327;SDS011;6733;51.044;3.746;2023-05-19T05:40:35;14.27;;;9.30;;
13327;SDS011;6733;51.044;3.746;2023-05-19T05:43:02;13.90;;;8.50;;
13327;SDS011;6733;51.044;3.746;2023-05-19T05:45:28;13.23;;;9.23;;
13327;SDS011;6733;51.044;3.746;2023-05-19T05:47:54;11.63;;;8.70;;
13327;SDS011;6733;51.044;3.746;2023-05-19T05:50:20;9.77;;;7.97;;
13327;SDS011;6733;51.044;3.746;2023-05-19T05:52:47;11.83;;;8.90;;
13327;SDS011;6733;51.044;3.746;2023-05-19T05:55:15;11.43;;;8.90;;
13327;SDS011;6733;51.044;3.746;2023-05-19T05:57:42;15.20;;;9.03;;
13327;SDS011;6733;51.044;3.746;2023-05-19T06:00:08;13.77;;;8.70;;
13327;SDS011;6733;51.044;3.746;2023-05-19T06:02:43;14.17;;;8.70;;
13327;SDS011;6733;51.044;3.746;2023-05-19T06:05:13;12.77;;;8.20;;
13327;SDS011;6733;51.044;3.746;2023-05-19T06:07:39;10.00;;;8.20;;
13327;SDS011;6733;51.044;3.746;2023-05-19T06:10:06;11.80;;;8.77;;
13327;SDS011;6733;51.044;3.746;2023-05-19T06:12:33;11.80;;;8.53;;
13327;SDS011;6733;51.044;3.746;2023-05-19T06:15:03;10.03;;;8.27;;
13327;SDS011;6733;51.044;3.746;2023-05-19T06:17:29;12.13;;;8.20;;
13327;SDS011;6733;51.044;3.746;2023-05-19T06:19:55;12.30;;;9.40;;
13327;SDS011;6733;51.044;3.746;2023-05-19T06:22:22;14.23;;;9.97;;
13327;SDS011;6733;51.044;3.746;2023-05-19T06:24:48;12.10;;;8.47;;
13327;SDS011;6733;51.044;3.746;2023-05-19T06:27:14;10.40;;;8.30;;
13327;SDS011;6733;51.044;3.746;2023-05-19T06:29:40;13.27;;;8.60;;
13327;SDS011;6733;51.044;3.746;2023-05-19T06:32:06;12.20;;;8.30;;
13327;SDS011;6733;51.044;3.746;2023-05-19T06:34:32;13.77;;;8.20;;
13327;SDS011;6733;51.044;3.746;2023-05-19T06:36:58;12.27;;;8.27;;
13327;SDS011;6733;51.044;3.746;2023-05-19T06:39:26;14.47;;;8.37;;
13327;SDS011;6733;51.044;3.746;2023-05-19T06:41:52;11.07;;;8.67;;
13327;SDS011;6733;51.044;3.746;2023-05-19T06:44:19;12.97;;;8.20;;
13327;SDS011;6733;51.044;3.746;2023-05-19T06:46:45;9.50;;;7.77;;
13327;SDS011;6733;51.044;3.746;2023-05-19T06:49:11;13.10;;;8.27;;
13327;SDS011;6733;51.044;3.746;2023-05-19T06:51:37;10.67;;;8.40;;
13327;SDS011;6733;51.044;3.746;2023-05-19T06:54:29;12.77;;;7.80;;
13327;SDS011;6733;51.044;3.746;2023-05-19T06:56:56;11.20;;;8.03;;
13327;SDS011;6733;51.044;3.746;2023-05-19T06:59:22;14.17;;;8.10;;
13327;SDS011;6733;51.044;3.746;2023-05-19T07:02:13;13.50;;;8.33;;
13327;SDS011;6733;51.044;3.746;2023-05-19T07:04:45;12.93;;;8.53;;
13327;SDS011;6733;51.044;3.746;2023-05-19T07:07:12;16.03;;;9.60;;
13327;SDS011;6733;51.044;3.746;2023-05-19T07:09:38;12.40;;;8.97;;
13327;SDS011;6733;51.044;3.746;2023-05-19T07:12:30;14.33;;;8.67;;
13327;SDS011;6733;51.044;3.746;2023-05-19T07:14:58;13.60;;;9.30;;
13327;SDS011;6733;51.044;3.746;2023-05-19T07:17:30;15.97;;;9.57;;
13327;SDS011;6733;51.044;3.746;2023-05-19T07:19:56;12.97;;;9.03;;
13327;SDS011;6733;51.044;3.746;2023-05-19T07:22:22;15.70;;;9.70;;
13327;SDS011;6733;51.044;3.746;2023-05-19T07:24:49;13.60;;;9.07;;
13327;SDS011;6733;51.044;3.746;2023-05-19T07:27:15;16.70;;;9.87;;
13327;SDS011;6733;51.044;3.746;2023-05-19T07:29:43;14.77;;;9.60;;
13327;SDS011;6733;51.044;3.746;2023-05-19T07:32:09;11.50;;;8.80;;
13327;SDS011;6733;51.044;3.746;2023-05-19T07:34:35;12.17;;;9.33;;
13327;SDS011;6733;51.044;3.746;2023-05-19T07:37:02;12.87;;;8.97;;
13327;SDS011;6733;51.044;3.746;2023-05-19T07:39:28;14.47;;;9.67;;
13327;SDS011;6733;51.044;3.746;2023-05-19T07:41:56;12.23;;;9.47;;
13327;SDS011;6733;51.044;3.746;2023-05-19T07:44:23;12.23;;;9.50;;
13327;SDS011;6733;51.044;3.746;2023-05-19T07:46:52;15.20;;;9.57;;
13327;SDS011;6733;51.044;3.746;2023-05-19T07:49:18;13.17;;;9.10;;
13327;SDS011;6733;51.044;3.746;2023-05-19T07:51:45;14.77;;;9.60;;
13327;SDS011;6733;51.044;3.746;2023-05-19T07:54:11;11.67;;;8.90;;
13327;SDS011;6733;51.044;3.746;2023-05-19T07:56:37;9.73;;;8.57;;
13327;SDS011;6733;51.044;3.746;2023-05-19T07:59:03;13.03;;;9.53;;
13327;SDS011;6733;51.044;3.746;2023-05-19T08:01:30;13.63;;;9.23;;
13327;SDS011;6733;51.044;3.746;2023-05-19T08:03:56;13.20;;;9.57;;
13327;SDS011;6733;51.044;3.746;2023-05-19T08:06:23;11.80;;;8.97;;
13327;SDS011;6733;51.044;3.746;2023-05-19T08:08:49;11.67;;;8.83;;
13327;SDS011;6733;51.044;3.746;2023-05-19T08:11:16;10.90;;;8.80;;
13327;SDS011;6733;51.044;3.746;2023-05-19T08:13:42;10.93;;;9.13;;
13327;SDS011;6733;51.044;3.746;2023-05-19T08:16:12;16.13;;;8.87;;
13327;SDS011;6733;51.044;3.746;2023-05-19T08:18:38;12.87;;;8.80;;
13327;SDS011;6733;51.044;3.746;2023-05-19T08:21:04;17.57;;;10.07;;
13327;SDS011;6733;51.044;3.746;2023-05-19T08:23:31;16.90;;;11.47;;
13327;SDS011;6733;51.044;3.746;2023-05-19T08:25:57;13.97;;;10.07;;
13327;SDS011;6733;51.044;3.746;2023-05-19T08:28:23;20.37;;;13.97;;
13327;SDS011;6733;51.044;3.746;2023-05-19T08:30:49;20.60;;;15.60;;
13327;SDS011;6733;51.044;3.746;2023-05-19T08:33:17;21.97;;;16.20;;
13327;SDS011;6733;51.044;3.746;2023-05-19T08:35:45;23.00;;;15.47;;
13327;SDS011;6733;51.044;3.746;2023-05-19T08:38:11;18.97;;;15.07;;
13327;SDS011;6733;51.044;3.746;2023-05-19T08:40:40;19.40;;;13.30;;
13327;SDS011;6733;51.044;3.746;2023-05-19T08:43:07;22.60;;;12.80;;
13327;SDS011;6733;51.044;3.746;2023-05-19T08:45:34;18.33;;;13.40;;
13327;SDS011;6733;51.044;3.746;2023-05-19T08:48:01;14.53;;;11.07;;
13327;SDS011;6733;51.044;3.746;2023-05-19T08:50:30;14.00;;;9.93;;
13327;SDS011;6733;51.044;3.746;2023-05-19T08:56:05;14.27;;;9.03;;
13327;SDS011;6733;51.044;3.746;2023-05-19T08:58:37;14.07;;;9.97;;
13327;SDS011;6733;51.044;3.746;2023-05-19T09:01:06;13.97;;;9.97;;
13327;SDS011;6733;51.044;3.746;2023-05-19T09:03:32;12.30;;;10.10;;
13327;SDS011;6733;51.044;3.746;2023-05-19T09:06:05;13.07;;;9.47;;
13327;SDS011;6733;51.044;3.746;2023-05-19T09:08:37;11.67;;;8.93;;
13327;SDS011;6733;51.044;3.746;2023-05-19T09:11:04;11.37;;;8.47;;
13327;SDS011;6733;51.044;3.746;2023-05-19T09:13:30;9.60;;;7.93;;
13327;SDS011;6733;51.044;3.746;2023-05-19T09:15:56;11.47;;;6.70;;
13327;SDS011;6733;51.044;3.746;2023-05-19T09:18:24;12.27;;;7.93;;
13327;SDS011;6733;51.044;3.746;2023-05-19T09:20:54;9.00;;;7.10;;
13327;SDS011;6733;51.044;3.746;2023-05-19T09:23:28;10.73;;;7.30;;
13327;SDS011;6733;51.044;3.746;2023-05-19T09:25:57;10.83;;;7.20;;
13327;SDS011;6733;51.044;3.746;2023-05-19T09:28:28;12.80;;;8.63;;
13327;SDS011;6733;51.044;3.746;2023-05-19T09:31:07;11.90;;;7.80;;
13327;SDS011;6733;51.044;3.746;2023-05-19T09:33:35;15.53;;;7.77;;
13327;SDS011;6733;51.044;3.746;2023-05-19T09:36:06;10.57;;;7.67;;
13327;SDS011;6733;51.044;3.746;2023-05-19T09:38:36;12.73;;;8.03;;
13327;SDS011;6733;51.044;3.746;2023-05-19T09:41:04;10.73;;;8.00;;
13327;SDS011;6733;51.044;3.746;2023-05-19T09:43:32;12.57;;;8.27;;
13327;SDS011;6733;51.044;3.746;2023-05-19T09:45:59;11.87;;;9.33;;
13327;SDS011;6733;51.044;3.746;2023-05-19T09:48:35;13.03;;;7.70;;
13327;SDS011;6733;51.044;3.746;2023-05-19T09:51:04;9.43;;;6.70;;
13327;SDS011;6733;51.044;3.746;2023-05-19T09:53:32;13.80;;;7.63;;
13327;SDS011;6733;51.044;3.746;2023-05-19T09:55:59;12.10;;;7.70;;
13327;SDS011;6733;51.044;3.746;2023-05-19T09:58:30;7.83;;;6.50;;
13327;SDS011;6733;51.044;3.746;2023-05-19T10:00:59;12.47;;;7.07;;
13327;SDS011;6733;51.044;3.746;2023-05-19T10:03:26;9.80;;;5.13;;
13327;SDS011;6733;51.044;3.746;2023-05-19T10:05:53;9.53;;;6.03;;
13327;SDS011;6733;51.044;3.746;2023-05-19T10:08:19;8.87;;;6.20;;
13327;SDS011;6733;51.044;3.746;2023-05-19T10:10:48;11.23;;;5.43;;
13327;SDS011;6733;51.044;3.746;2023-05-19T10:13:15;7.73;;;6.93;;
13327;SDS011;6733;51.044;3.746;2023-05-19T10:15:41;9.83;;;6.17;;
13327;SDS011;6733;51.044;3.746;2023-05-19T10:18:10;9.50;;;5.07;;
13327;SDS011;6733;51.044;3.746;2023-05-19T10:20:38;5.43;;;4.73;;
13327;SDS011;6733;51.044;3.746;2023-05-19T10:23:05;7.10;;;4.60;;
13327;SDS011;6733;51.044;3.746;2023-05-19T10:25:32;5.77;;;4.87;;
13327;SDS011;6733;51.044;3.746;2023-05-19T10:28:06;8.40;;;5.30;;
13327;SDS011;6733;51.044;3.746;2023-05-19T10:30:38;7.53;;;5.07;;
13327;SDS011;6733;51.044;3.746;2023-05-19T10:33:14;9.97;;;6.23;;
13327;SDS011;6733;51.044;3.746;2023-05-19T10:38:36;7.40;;;4.50;;
13327;SDS011;6733;51.044;3.746;2023-05-19T10:44:08;9.63;;;3.83;;
13327;SDS011;6733;51.044;3.746;2023-05-19T10:46:40;9.63;;;4.30;;
13327;SDS011;6733;51.044;3.746;2023-05-19T10:49:07;8.00;;;4.20;;
13327;SDS011;6733;51.044;3.746;2023-05-19T10:51:34;10.97;;;4.43;;
13327;SDS011;6733;51.044;3.746;2023-05-19T10:54:02;8.13;;;3.87;;
13327;SDS011;6733;51.044;3.746;2023-05-19T10:56:35;8.97;;;4.70;;
13327;SDS011;6733;51.044;3.746;2023-05-19T10:59:06;8.87;;;3.97;;
13327;SDS011;6733;51.044;3.746;2023-05-19T11:01:52;5.67;;;3.33;;
13327;SDS011;6733;51.044;3.746;2023-05-19T11:04:19;7.40;;;3.47;;
13327;SDS011;6733;51.044;3.746;2023-05-19T11:07:18;6.27;;;3.07;;
13327;SDS011;6733;51.044;3.746;2023-05-19T11:09:49;6.13;;;3.60;;
13327;SDS011;6733;51.044;3.746;2023-05-19T11:12:19;8.03;;;4.10;;
13327;SDS011;6733;51.044;3.746;2023-05-19T11:14:52;9.03;;;4.47;;
13327;SDS011;6733;51.044;3.746;2023-05-19T11:17:19;5.93;;;4.13;;
13327;SDS011;6733;51.044;3.746;2023-05-19T11:19:53;8.00;;;4.03;;
13327;SDS011;6733;51.044;3.746;2023-05-19T11:22:24;8.20;;;4.03;;
13327;SDS011;6733;51.044;3.746;2023-05-19T11:24:53;6.30;;;3.33;;
13327;SDS011;6733;51.044;3.746;2023-05-19T11:27:21;7.53;;;3.77;;
13327;SDS011;6733;51.044;3.746;2023-05-19T11:29:56;4.03;;;2.87;;
13327;SDS011;6733;51.044;3.746;2023-05-19T11:32:27;5.80;;;3.60;;
13327;SDS011;6733;51.044;3.746;2023-05-19T11:34:55;5.83;;;3.63;;
13327;SDS011;6733;51.044;3.746;2023-05-19T11:37:22;5.83;;;3.80;;
13327;SDS011;6733;51.044;3.746;2023-05-19T11:39:48;8.50;;;4.07;;
13327;SDS011;6733;51.044;3.746;2023-05-19T11:42:15;7.57;;;4.47;;
13327;SDS011;6733;51.044;3.746;2023-05-19T11:44:42;8.80;;;4.40;;
13327;SDS011;6733;51.044;3.746;2023-05-19T11:47:12;8.17;;;3.70;;
13327;SDS011;6733;51.044;3.746;2023-05-19T11:49:42;8.73;;;4.07;;
13327;SDS011;6733;51.044;3.746;2023-05-19T11:52:10;7.57;;;4.17;;
13327;SDS011;6733;51.044;3.746;2023-05-19T11:54:36;8.63;;;4.20;;
13327;SDS011;6733;51.044;3.746;2023-05-19T11:57:03;7.67;;;4.40;;
13327;SDS011;6733;51.044;3.746;2023-05-19T12:04:46;8.13;;;5.27;;
13327;SDS011;6733;51.044;3.746;2023-05-19T12:07:21;7.37;;;5.63;;
13327;SDS011;6733;51.044;3.746;2023-05-19T12:09:49;8.53;;;4.93;;
13327;SDS011;6733;51.044;3.746;2023-05-19T12:12:18;7.63;;;4.93;;
13327;SDS011;6733;51.044;3.746;2023-05-19T12:14:45;8.00;;;5.40;;
13327;SDS011;6733;51.044;3.746;2023-05-19T12:17:12;7.20;;;5.70;;
13327;SDS011;6733;51.044;3.746;2023-05-19T12:19:45;6.67;;;5.20;;
13327;SDS011;6733;51.044;3.746;2023-05-19T12:22:13;7.70;;;5.07;;
13327;SDS011;6733;51.044;3.746;2023-05-19T12:24:41;10.53;;;7.27;;
13327;SDS011;6733;51.044;3.746;2023-05-19T12:27:18;12.27;;;5.40;;
13327;SDS011;6733;51.044;3.746;2023-05-19T12:29:54;10.53;;;5.30;;
13327;SDS011;6733;51.044;3.746;2023-05-19T12:32:25;8.90;;;5.67;;
13327;SDS011;6733;51.044;3.746;2023-05-19T12:34:55;9.07;;;4.90;;
13327;SDS011;6733;51.044;3.746;2023-05-19T12:37:25;7.97;;;5.47;;
13327;SDS011;6733;51.044;3.746;2023-05-19T12:39:54;8.33;;;4.70;;
13327;SDS011;6733;51.044;3.746;2023-05-19T12:42:21;10.20;;;4.87;;
13327;SDS011;6733;51.044;3.746;2023-05-19T12:44:49;8.27;;;5.23;;
13327;SDS011;6733;51.044;3.746;2023-05-19T12:47:17;8.90;;;4.43;;
13327;SDS011;6733;51.044;3.746;2023-05-19T12:52:30;5.70;;;4.17;;
13327;SDS011;6733;51.044;3.746;2023-05-19T12:55:04;7.47;;;5.10;;
13327;SDS011;6733;51.044;3.746;2023-05-19T12:57:41;8.30;;;4.60;;
13327;SDS011;6733;51.044;3.746;2023-05-19T13:00:18;6.53;;;4.70;;
13327;SDS011;6733;51.044;3.746;2023-05-19T13:02:56;9.30;;;5.17;;
13327;SDS011;6733;51.044;3.746;2023-05-19T13:05:25;7.83;;;5.13;;
13327;SDS011;6733;51.044;3.746;2023-05-19T13:08:05;6.93;;;4.87;;
13327;SDS011;6733;51.044;3.746;2023-05-19T13:10:34;10.73;;;5.00;;
13327;SDS011;6733;51.044;3.746;2023-05-19T13:13:01;7.00;;;5.53;;
13327;SDS011;6733;51.044;3.746;2023-05-19T13:15:28;8.43;;;5.40;;
13327;SDS011;6733;51.044;3.746;2023-05-19T13:17:56;10.17;;;5.37;;
13327;SDS011;6733;51.044;3.746;2023-05-19T13:20:22;7.10;;;4.30;;
13327;SDS011;6733;51.044;3.746;2023-05-19T13:22:49;7.10;;;5.23;;
13327;SDS011;6733;51.044;3.746;2023-05-19T13:25:16;7.73;;;4.73;;
13327;SDS011;6733;51.044;3.746;2023-05-19T13:27:43;7.53;;;5.30;;
13327;SDS011;6733;51.044;3.746;2023-05-19T13:30:10;6.80;;;5.33;;
13327;SDS011;6733;51.044;3.746;2023-05-19T13:32:37;9.77;;;5.23;;
13327;SDS011;6733;51.044;3.746;2023-05-19T13:35:03;10.67;;;5.43;;
13327;SDS011;6733;51.044;3.746;2023-05-19T13:37:30;8.27;;;4.73;;
13327;SDS011;6733;51.044;3.746;2023-05-19T13:39:56;9.13;;;5.10;;
13327;SDS011;6733;51.044;3.746;2023-05-19T13:42:22;6.87;;;5.07;;
13327;SDS011;6733;51.044;3.746;2023-05-19T13:44:52;8.40;;;4.77;;
13327;SDS011;6733;51.044;3.746;2023-05-19T13:47:19;6.60;;;4.93;;
13327;SDS011;6733;51.044;3.746;2023-05-19T13:49:46;9.00;;;5.23;;
13327;SDS011;6733;51.044;3.746;2023-05-19T13:52:12;10.47;;;5.47;;
13327;SDS011;6733;51.044;3.746;2023-05-19T13:54:39;17.73;;;5.90;;
13327;SDS011;6733;51.044;3.746;2023-05-19T13:57:05;16.33;;;5.63;;
13327;SDS011;6733;51.044;3.746;2023-05-19T13:59:31;9.27;;;4.67;;
13327;SDS011;6733;51.044;3.746;2023-05-19T14:01:59;7.03;;;4.30;;
13327;SDS011;6733;51.044;3.746;2023-05-19T14:04:27;8.23;;;5.10;;
13327;SDS011;6733;51.044;3.746;2023-05-19T14:06:53;7.73;;;5.10;;
13327;SDS011;6733;51.044;3.746;2023-05-19T14:09:20;7.47;;;4.93;;
13327;SDS011;6733;51.044;3.746;2023-05-19T14:11:46;7.53;;;4.70;;
13327;SDS011;6733;51.044;3.746;2023-05-19T14:14:12;11.03;;;5.33;;
13327;SDS011;6733;51.044;3.746;2023-05-19T14:16:41;6.37;;;4.70;;
13327;SDS011;6733;51.044;3.746;2023-05-19T14:19:07;9.87;;;5.30;;
13327;SDS011;6733;51.044;3.746;2023-05-19T14:21:34;5.77;;;4.63;;
13327;SDS011;6733;51.044;3.746;2023-05-19T14:24:01;8.63;;;4.83;;
13327;SDS011;6733;51.044;3.746;2023-05-19T14:26:27;6.30;;;4.37;;
13327;SDS011;6733;51.044;3.746;2023-05-19T14:28:53;7.13;;;4.57;;
13327;SDS011;6733;51.044;3.746;2023-05-19T14:31:21;8.77;;;5.37;;
13327;SDS011;6733;51.044;3.746;2023-05-19T14:33:47;10.00;;;5.00;;
13327;SDS011;6733;51.044;3.746;2023-05-19T14:36:15;8.33;;;4.73;;
13327;SDS011;6733;51.044;3.746;2023-05-19T14:38:41;9.97;;;4.70;;
13327;SDS011;6733;51.044;3.746;2023-05-19T14:41:07;8.93;;;4.60;;
13327;SDS011;6733;51.044;3.746;2023-05-19T14:43:34;8.00;;;4.23;;
13327;SDS011;6733;51.044;3.746;2023-05-19T14:46:00;7.93;;;4.17;;
13327;SDS011;6733;51.044;3.746;2023-05-19T14:48:26;8.03;;;4.70;;
13327;SDS011;6733;51.044;3.746;2023-05-19T14:50:52;10.50;;;4.40;;
13327;SDS011;6733;51.044;3.746;2023-05-19T14:53:18;10.60;;;5.93;;
13327;SDS011;6733;51.044;3.746;2023-05-19T14:55:47;11.27;;;6.13;;
13327;SDS011;6733;51.044;3.746;2023-05-19T14:58:16;9.33;;;5.20;;
13327;SDS011;6733;51.044;3.746;2023-05-19T15:00:42;7.60;;;4.70;;
13327;SDS011;6733;51.044;3.746;2023-05-19T15:03:09;8.27;;;4.47;;
13327;SDS011;6733;51.044;3.746;2023-05-19T15:05:36;8.70;;;5.10;;
13327;SDS011;6733;51.044;3.746;2023-05-19T15:08:04;5.93;;;4.10;;
13327;SDS011;6733;51.044;3.746;2023-05-19T15:10:31;7.93;;;5.63;;
13327;SDS011;6733;51.044;3.746;2023-05-19T15:12:57;6.63;;;4.37;;
13327;SDS011;6733;51.044;3.746;2023-05-19T15:15:24;6.00;;;4.00;;
13327;SDS011;6733;51.044;3.746;2023-05-19T15:17:50;7.30;;;4.73;;
13327;SDS011;6733;51.044;3.746;2023-05-19T15:20:17;8.50;;;4.73;;
13327;SDS011;6733;51.044;3.746;2023-05-19T15:22:43;10.83;;;5.33;;
13327;SDS011;6733;51.044;3.746;2023-05-19T15:25:09;6.90;;;5.10;;
13327;SDS011;6733;51.044;3.746;2023-05-19T15:27:35;7.43;;;4.30;;
13327;SDS011;6733;51.044;3.746;2023-05-19T15:30:02;8.30;;;4.93;;
13327;SDS011;6733;51.044;3.746;2023-05-19T15:32:29;7.83;;;4.03;;
13327;SDS011;6733;51.044;3.746;2023-05-19T15:34:55;7.93;;;4.47;;
13327;SDS011;6733;51.044;3.746;2023-05-19T15:37:21;12.00;;;5.17;;
13327;SDS011;6733;51.044;3.746;2023-05-19T15:39:47;8.20;;;4.77;;
13327;SDS011;6733;51.044;3.746;2023-05-19T15:42:13;7.23;;;4.37;;
13327;SDS011;6733;51.044;3.746;2023-05-19T15:44:40;7.53;;;4.37;;
13327;SDS011;6733;51.044;3.746;2023-05-19T15:47:06;7.13;;;3.80;;
13327;SDS011;6733;51.044;3.746;2023-05-19T15:49:32;5.97;;;3.73;;
13327;SDS011;6733;51.044;3.746;2023-05-19T15:51:58;10.07;;;4.03;;